TimeWEST,TemperatureF,Dew PointF,Humidity,Sea Level PressureIn,VisibilityMPH,Wind Direction,Wind SpeedMPH,Gust SpeedMPH,PrecipitationIn,Events,Conditions,WindDirDegrees,DateUTC
12:00 AM,69.8,60.8,73,30.01,5.0,Calm,Calm,-,N/A,,Scattered Clouds,0,2013-10-07 23:00:00
1:00 AM,65,59,76,29.99,6,Calm,Calm,,,,Partly Cloudy,,2013-10-08 00:00:00
1:00 AM,64.4,59.0,83,29.98,6.2,Calm,Calm,-,N/A,,Scattered Clouds,0,2013-10-08 00:00:00
2:00 AM,64.4,59.0,83,29.98,6.2,Calm,Calm,-,N/A,,Scattered Clouds,0,2013-10-08 01:00:00
3:00 AM,64.4,59.0,83,29.95,6.2,Calm,Calm,-,N/A,,Partly Cloudy,0,2013-10-08 02:00:00
4:00 AM,64,60,82,29.95,6,Calm,Calm,,,,Scattered Clouds,,2013-10-08 03:00:00
4:00 AM,64.4,59.0,83,29.95,6.2,Calm,Calm,-,N/A,,Partly Cloudy,0,2013-10-08 03:00:00
5:00 AM,62.6,59.0,88,29.92,6.2,Calm,Calm,-,N/A,,Partly Cloudy,0,2013-10-08 04:00:00
6:00 AM,62.6,59.0,88,29.92,6.2,Calm,Calm,-,N/A,,Partly Cloudy,0,2013-10-08 05:00:00
7:00 AM,60,56,84,29.95,6,Calm,Calm,,,,Scattered Clouds,,2013-10-08 06:00:00
7:00 AM,59.0,57.2,94,29.95,6.2,Calm,Calm,-,N/A,,Partly Cloudy,0,2013-10-08 06:00:00
8:00 AM,60.8,59.0,94,29.95,6.2,Calm,Calm,-,N/A,,Scattered Clouds,0,2013-10-08 07:00:00
9:00 AM,62.6,59.0,88,29.95,5.0,Calm,Calm,-,N/A,,Scattered Clouds,0,2013-10-08 08:00:00
10:00 AM,68,62,74,29.98,5,Calm,Calm,,,,Mostly Cloudy,,2013-10-08 09:00:00
10:00 AM,68.0,62.6,83,29.98,5.0,Calm,Calm,-,N/A,,Mostly Cloudy,0,2013-10-08 09:00:00
11:00 AM,71.6,60.8,69,29.98,5.0,Calm,Calm,-,N/A,,Mostly Cloudy,0,2013-10-08 10:00:00
12:00 PM,75.2,60.8,61,29.95,6.2,Calm,Calm,-,N/A,,Partly Cloudy,0,2013-10-08 11:00:00
1:00 PM,79,60,41,29.93,6,West,2.3,,,,Scattered Clouds,260,2013-10-08 12:00:00
1:00 PM,78.8,60.8,54,29.92,6.2,West,2.3,-,N/A,,Partly Cloudy,260,2013-10-08 12:00:00
2:00 PM,82.4,60.8,48,29.89,6.2,WSW,8.1,-,N/A,,Partly Cloudy,250,2013-10-08 13:00:00
3:00 PM,78.8,60.8,54,29.89,6.2,West,13.8,-,N/A,,Unknown,280,2013-10-08 14:00:00
4:00 PM,78,61,47,29.89,6,West,16.1,,,,,270,2013-10-08 15:00:00
4:00 PM,78.8,60.8,54,29.89,-9999.0,West,15.0,-,N/A,,Clear,270,2013-10-08 15:00:00
5:00 PM,77.0,60.8,57,29.89,-9999.0,West,13.8,-,N/A,,Clear,260,2013-10-08 16:00:00
6:00 PM,77.0,59.0,54,29.89,-9999.0,West,11.5,-,N/A,,Clear,260,2013-10-08 17:00:00
7:00 PM,75,59,48,29.90,6,WSW,8.1,,,,,240,2013-10-08 18:00:00
7:00 PM,75.2,59.0,57,29.89,-9999.0,WSW,8.1,-,N/A,,Clear,250,2013-10-08 18:00:00
8:00 PM,69.8,60.8,73,29.92,-9999.0,SW,4.6,-,N/A,,Clear,220,2013-10-08 19:00:00
9:00 PM,69.8,62.6,78,29.92,6.2,SSW,5.8,-,N/A,,Scattered Clouds,200,2013-10-08 20:00:00
10:00 PM,69,63,74,29.96,6,SE,1.2,,,,,140,2013-10-08 21:00:00
10:00 PM,69.8,62.6,78,29.95,6.2,Variable,1.2,-,N/A,,Unknown,0,2013-10-08 21:00:00
11:00 PM,66.2,60.8,83,29.95,6.2,Calm,Calm,-,N/A,,Unknown,0,2013-10-08 22:00:00